createdAt,value
2023-02-13T00:02:46.323Z,30.92
2023-02-13T00:05:13.358Z,29.92
2023-02-13T00:07:40.230Z,27.60
2023-02-13T00:10:07.885Z,29.10
2023-02-13T00:12:35.157Z,28.75
2023-02-13T00:15:02.725Z,29.98
2023-02-13T00:17:29.754Z,28.45
2023-02-13T00:19:56.578Z,27.90
2023-02-13T00:22:24.312Z,26.92
2023-02-13T00:24:51.378Z,27.52
2023-02-13T00:27:18.339Z,28.35
2023-02-13T00:29:45.301Z,28.00
2023-02-13T00:32:12.341Z,26.58
2023-02-13T00:34:39.343Z,27.77
2023-02-13T00:37:06.237Z,26.42
2023-02-13T00:39:33.130Z,27.00
2023-02-13T00:41:59.972Z,24.50
2023-02-13T00:44:26.822Z,26.90
2023-02-13T00:46:53.683Z,26.60
2023-02-13T00:49:20.545Z,25.35
2023-02-13T00:51:47.432Z,25.00
2023-02-13T00:54:14.350Z,25.13
2023-02-13T00:56:41.250Z,24.42
2023-02-13T00:59:08.144Z,26.35
2023-02-13T01:01:35.110Z,25.40
2023-02-13T01:04:02.315Z,25.38
2023-02-13T01:06:29.203Z,24.17
2023-02-13T01:08:56.051Z,23.88
2023-02-13T01:11:23.069Z,24.00
2023-02-13T01:13:49.953Z,23.60
2023-02-13T01:16:17.942Z,23.00
2023-02-13T01:18:45.000Z,23.25
2023-02-13T01:21:21.865Z,23.25
2023-02-13T01:23:48.823Z,23.20
2023-02-13T01:26:20.039Z,23.05
2023-02-13T01:28:47.202Z,22.70
2023-02-13T01:31:14.539Z,23.27
2023-02-13T01:33:41.497Z,23.10
2023-02-13T01:36:10.172Z,22.52
2023-02-13T01:38:37.096Z,24.05
2023-02-13T01:41:04.374Z,21.55
2023-02-13T01:43:49.758Z,21.77
2023-02-13T01:46:22.455Z,21.95
2023-02-13T01:48:50.113Z,21.25
2023-02-13T01:51:23.346Z,21.20
2023-02-13T01:53:54.834Z,22.05
2023-02-13T01:56:21.627Z,21.98
2023-02-13T01:58:50.721Z,20.02
2023-02-13T02:01:17.934Z,20.88
2023-02-13T02:03:55.222Z,19.98
2023-02-13T02:06:30.630Z,20.90
2023-02-13T02:09:02.363Z,20.05
2023-02-13T02:11:52.712Z,19.92
2023-02-13T02:14:20.189Z,19.63
2023-02-13T02:16:47.168Z,20.27
2023-02-13T02:19:26.302Z,19.50
2023-02-13T02:22:08.300Z,19.48
2023-02-13T02:24:48.156Z,18.65
2023-02-13T02:27:31.468Z,18.73
2023-02-13T02:30:10.415Z,18.95
2023-02-13T02:32:50.358Z,18.70
2023-02-13T02:35:20.483Z,18.70
2023-02-13T02:38:08.938Z,17.75
2023-02-13T02:41:02.296Z,17.10
2023-02-13T02:43:59.583Z,17.00
2023-02-13T02:46:37.898Z,17.73
2023-02-13T02:49:32.140Z,17.00
2023-02-13T02:52:08.873Z,16.83
2023-02-13T02:55:06.486Z,17.10
2023-02-13T02:57:56.095Z,16.92
2023-02-13T03:00:43.845Z,17.33
2023-02-13T03:03:48.200Z,16.05
2023-02-13T03:06:15.123Z,15.13
2023-02-13T03:09:02.706Z,14.30
2023-02-13T03:11:47.985Z,15.32
2023-02-13T03:14:20.702Z,14.30
2023-02-13T03:17:06.919Z,14.45
2023-02-13T03:20:57.483Z,14.45
2023-02-13T03:23:53.306Z,13.63
2023-02-13T03:26:50.332Z,13.45
2023-02-13T03:30:02.160Z,13.55
2023-02-13T03:32:50.686Z,14.15
2023-02-13T03:35:55.707Z,12.77
2023-02-13T03:38:34.109Z,11.82
2023-02-13T03:41:30.877Z,12.73
2023-02-13T03:44:14.446Z,13.07
2023-02-13T03:46:44.738Z,11.52
2023-02-13T03:49:42.250Z,12.43
2023-02-13T03:52:29.310Z,11.90
2023-02-13T03:55:15.393Z,12.15
2023-02-13T03:58:03.273Z,12.40
2023-02-13T04:00:35.806Z,11.18
2023-02-13T04:03:28.926Z,11.50
2023-02-13T04:06:16.386Z,11.57
2023-02-13T04:08:43.538Z,10.85
2023-02-13T04:11:32.710Z,10.75
2023-02-13T04:14:01.412Z,9.85
2023-02-13T04:16:43.837Z,10.73
2023-02-13T04:19:11.386Z,10.60
2023-02-13T04:21:42.946Z,10.70
2023-02-13T04:24:10.330Z,10.35
2023-02-13T04:26:40.070Z,9.40
2023-02-13T04:31:34.243Z,10.27
2023-02-13T04:34:01.555Z,9.38
2023-02-13T04:36:28.472Z,9.63
2023-02-13T04:38:55.415Z,9.48
2023-02-13T04:41:22.487Z,9.35
2023-02-13T04:43:49.425Z,9.05
2023-02-13T04:46:16.300Z,9.77
2023-02-13T04:51:10.337Z,9.18
2023-02-13T04:53:37.310Z,9.10
2023-02-13T04:56:04.897Z,8.20
2023-02-13T04:58:31.770Z,8.50
2023-02-13T05:00:59.077Z,8.27
2023-02-13T05:03:26.181Z,8.55
2023-02-13T05:05:53.082Z,8.52
2023-02-13T05:08:20.158Z,8.63
2023-02-13T05:10:47.231Z,8.52
2023-02-13T05:13:14.106Z,9.25
2023-02-13T05:15:41.074Z,8.07
2023-02-13T05:18:07.974Z,7.40
2023-02-13T05:20:34.890Z,7.60
2023-02-13T05:23:20.229Z,8.10
2023-02-13T05:25:47.116Z,7.93
2023-02-13T05:28:32.529Z,7.40
2023-02-13T05:30:59.870Z,7.50
2023-02-13T05:33:27.855Z,7.55
2023-02-13T05:35:54.735Z,7.30
2023-02-13T05:38:21.667Z,7.63
2023-02-13T05:40:48.564Z,7.40
2023-02-13T05:43:15.478Z,7.88
2023-02-13T05:45:42.432Z,7.63
2023-02-13T05:48:09.313Z,7.13
2023-02-13T05:50:36.300Z,7.50
2023-02-13T05:53:03.261Z,6.68
2023-02-13T05:55:30.173Z,6.75
2023-02-13T05:57:57.863Z,6.40
2023-02-13T06:00:25.167Z,6.80
2023-02-13T06:02:52.217Z,7.60
2023-02-13T06:05:19.154Z,6.50
2023-02-13T06:07:46.063Z,6.55
2023-02-13T06:10:13.039Z,6.93
2023-02-13T06:12:39.922Z,6.57
2023-02-13T06:15:07.512Z,6.18
2023-02-13T06:17:34.414Z,6.00
2023-02-13T06:20:01.446Z,6.13
2023-02-13T06:22:28.317Z,5.55
2023-02-13T06:24:55.198Z,6.15
2023-02-13T06:27:22.089Z,5.85
2023-02-13T06:29:48.994Z,6.50
2023-02-13T06:32:15.834Z,5.45
2023-02-13T06:34:42.731Z,5.75
2023-02-13T06:37:09.711Z,5.65
2023-02-13T06:39:36.575Z,5.63
2023-02-13T06:42:03.422Z,5.22
2023-02-13T06:44:30.311Z,5.60
2023-02-13T06:46:57.237Z,5.88
2023-02-13T06:49:24.170Z,5.65
2023-02-13T06:51:51.013Z,5.68
2023-02-13T06:54:18.111Z,5.43
2023-02-13T06:56:45.014Z,5.38
2023-02-13T06:59:11.900Z,5.60
2023-02-13T07:01:38.845Z,5.45
2023-02-13T07:04:05.773Z,5.22
2023-02-13T07:06:33.580Z,5.28
2023-02-13T07:09:04.720Z,4.88
2023-02-13T07:11:31.658Z,5.68
2023-02-13T07:13:58.532Z,4.93
2023-02-13T07:16:25.468Z,5.43
2023-02-13T07:18:52.422Z,5.22
2023-02-13T07:21:19.289Z,4.82
2023-02-13T07:23:46.228Z,5.28
2023-02-13T07:26:13.141Z,5.80
2023-02-13T07:28:40.093Z,5.38
2023-02-13T07:31:07.112Z,48.60
2023-02-13T07:33:35.049Z,55.42
2023-02-13T07:36:03.613Z,44.50
2023-02-13T07:38:31.598Z,43.50
2023-02-13T07:40:59.829Z,39.25
2023-02-13T07:43:27.584Z,38.00
2023-02-13T07:45:57.359Z,34.33
2023-02-13T07:48:24.884Z,32.70
2023-02-13T07:50:51.804Z,29.92
2023-02-13T07:53:18.659Z,28.23
2023-02-13T07:55:45.570Z,27.65
2023-02-13T07:58:12.481Z,24.90
2023-02-13T08:00:39.354Z,23.70
2023-02-13T08:03:06.241Z,21.52
2023-02-13T08:05:33.856Z,20.75
2023-02-13T08:08:00.722Z,20.75
2023-02-13T08:10:46.261Z,20.13
2023-02-13T08:13:14.234Z,17.35
2023-02-13T08:15:41.279Z,19.13
2023-02-13T08:18:08.198Z,16.13
2023-02-13T08:20:35.193Z,16.80
2023-02-13T08:23:10.460Z,16.23
2023-02-13T08:25:40.681Z,16.45
2023-02-13T08:28:07.628Z,14.73
2023-02-13T08:30:34.567Z,14.95
2023-02-13T08:33:01.650Z,13.10
2023-02-13T08:35:31.581Z,14.02
2023-02-13T08:38:02.822Z,14.50
2023-02-13T08:40:29.722Z,13.20
2023-02-13T08:43:01.489Z,12.60
2023-02-13T08:45:28.627Z,13.25
2023-02-13T08:48:04.009Z,12.55
2023-02-13T08:50:31.122Z,12.65
2023-02-13T08:52:58.886Z,11.43
2023-02-13T08:55:27.008Z,12.43
2023-02-13T08:57:53.888Z,12.73
2023-02-13T09:00:21.526Z,11.52
2023-02-13T09:02:48.517Z,11.25
2023-02-13T09:05:15.695Z,11.00
2023-02-13T09:07:42.564Z,11.55
2023-02-13T09:10:09.800Z,11.27
2023-02-13T09:12:36.890Z,14.82
2023-02-13T09:15:05.523Z,38.85
2023-02-13T09:17:32.463Z,48.85
2023-02-13T09:19:59.415Z,46.08
2023-02-13T09:22:26.385Z,35.92
2023-02-13T09:24:53.266Z,30.20
2023-02-13T09:27:20.149Z,25.20
2023-02-13T09:29:47.384Z,24.10
2023-02-13T09:32:14.397Z,22.30
2023-02-13T09:34:41.341Z,20.73
2023-02-13T09:37:08.202Z,19.15
2023-02-13T09:39:35.099Z,18.80
2023-02-13T09:42:02.473Z,18.25
2023-02-13T09:44:39.104Z,16.80
2023-02-13T09:47:18.018Z,17.05
2023-02-13T09:49:57.579Z,17.20
2023-02-13T09:52:33.636Z,16.05
2023-02-13T09:55:02.022Z,15.63
2023-02-13T09:57:31.565Z,14.77
2023-02-13T10:00:11.724Z,15.05
2023-02-13T10:02:41.486Z,14.27
2023-02-13T10:08:28.918Z,14.30
2023-02-13T10:11:28.197Z,12.75
2023-02-13T10:13:55.017Z,13.68
2023-02-13T10:16:36.986Z,13.07
2023-02-13T10:19:12.904Z,12.80
2023-02-13T10:21:50.892Z,12.63
2023-02-13T10:24:32.881Z,11.93
2023-02-13T10:27:01.619Z,11.95
2023-02-13T10:30:05.359Z,11.98
2023-02-13T10:33:15.224Z,11.38
2023-02-13T10:35:44.528Z,12.30
2023-02-13T10:38:17.705Z,38.53
2023-02-13T10:41:04.267Z,97.72
2023-02-13T10:43:46.190Z,97.40
2023-02-13T10:46:35.820Z,78.22
2023-02-13T10:52:08.518Z,45.25
2023-02-13T10:55:15.593Z,42.15
2023-02-13T10:58:01.908Z,71.93
2023-02-13T11:00:54.026Z,70.82
2023-02-13T11:03:26.579Z,56.83
2023-02-13T11:05:55.181Z,45.20
2023-02-13T11:08:34.874Z,42.90
2023-02-13T11:13:30.070Z,39.58
2023-02-13T11:16:07.924Z,36.03
2023-02-13T11:18:44.291Z,34.13
2023-02-13T11:21:16.696Z,32.55
2023-02-13T11:23:54.489Z,30.05
2023-02-13T11:26:34.903Z,27.85
2023-02-13T11:29:05.298Z,27.38
2023-02-13T11:31:34.293Z,27.30
2023-02-13T11:34:23.558Z,26.17
2023-02-13T11:36:55.134Z,35.97
2023-02-13T11:39:23.556Z,38.55
2023-02-13T11:41:53.485Z,38.08
2023-02-13T11:44:26.938Z,34.47
2023-02-13T11:46:58.976Z,32.42
2023-02-13T11:49:53.862Z,30.65
2023-02-13T11:52:28.647Z,28.75
2023-02-13T11:55:01.842Z,26.35
2023-02-13T11:57:36.113Z,26.20
2023-02-13T12:00:28.777Z,24.70
2023-02-13T12:02:55.802Z,23.30
2023-02-13T12:05:25.220Z,67.22
2023-02-13T12:08:00.186Z,91.57
2023-02-13T12:10:29.205Z,92.05
2023-02-13T12:13:06.470Z,77.47
2023-02-13T12:15:34.688Z,64.47
2023-02-13T12:18:27.081Z,53.72
2023-02-13T12:21:26.197Z,49.22
2023-02-13T12:24:22.352Z,44.65
2023-02-13T12:26:56.326Z,43.08
2023-02-13T12:29:36.178Z,40.42
2023-02-13T12:32:21.082Z,38.63
2023-02-13T12:35:10.518Z,37.55
2023-02-13T12:37:49.320Z,34.90
2023-02-13T12:40:38.015Z,34.00
2023-02-13T12:43:29.210Z,33.67
2023-02-13T12:46:21.306Z,34.10
2023-02-13T12:49:25.674Z,29.88
2023-02-13T12:52:13.669Z,31.42
2023-02-13T12:54:56.067Z,30.05
2023-02-13T12:57:37.922Z,29.80
2023-02-13T13:00:26.351Z,29.77
2023-02-13T13:03:30.492Z,29.13
2023-02-13T13:06:22.627Z,28.45
2023-02-13T13:09:14.824Z,27.67
2023-02-13T13:12:05.404Z,25.67
2023-02-13T13:15:13.349Z,25.67
2023-02-13T13:17:58.376Z,25.23
2023-02-13T13:20:31.005Z,24.75
2023-02-13T13:23:05.723Z,24.23
2023-02-13T13:25:38.661Z,23.75
2023-02-13T13:28:38.487Z,24.45
2023-02-13T13:31:06.603Z,23.63
2023-02-13T13:33:34.366Z,23.50
2023-02-13T13:36:26.729Z,23.30
2023-02-13T13:39:06.059Z,22.48
2023-02-13T13:42:02.427Z,22.05
2023-02-13T13:45:14.837Z,23.63
2023-02-13T13:48:20.121Z,21.30
2023-02-13T13:50:47.581Z,21.17
2023-02-13T13:53:20.306Z,21.50
2023-02-13T13:55:47.464Z,21.23
2023-02-13T13:58:24.923Z,21.25
2023-02-13T14:01:24.131Z,20.85
2023-02-13T14:03:58.042Z,20.77
2023-02-13T14:06:28.509Z,20.33
2023-02-13T14:09:01.421Z,20.40
2023-02-13T14:11:31.297Z,21.08
2023-02-13T14:13:58.334Z,20.10
2023-02-13T14:16:45.304Z,19.27
2023-02-13T14:19:30.383Z,19.58
2023-02-13T14:22:20.274Z,20.48
2023-02-13T14:24:58.290Z,19.10
2023-02-13T14:27:29.561Z,19.02
2023-02-13T14:29:56.991Z,18.05
2023-02-13T14:32:36.643Z,19.42
2023-02-13T14:37:39.981Z,18.00
2023-02-13T14:40:27.897Z,17.70
2023-02-13T14:42:57.008Z,18.58
2023-02-13T14:45:33.056Z,17.25
2023-02-13T14:48:06.568Z,16.52
2023-02-13T14:50:45.954Z,16.35
2023-02-13T14:53:26.391Z,16.75
2023-02-13T14:56:18.836Z,16.35
2023-02-13T14:59:14.791Z,16.90
2023-02-13T15:02:02.813Z,15.95
2023-02-13T15:04:43.297Z,16.00
2023-02-13T15:07:29.877Z,16.33
2023-02-13T15:10:04.453Z,16.33
2023-02-13T15:12:37.210Z,16.45
2023-02-13T15:15:30.482Z,16.20
2023-02-13T15:18:02.173Z,15.93
2023-02-13T15:20:32.226Z,15.45
2023-02-13T15:22:59.821Z,14.32
2023-02-13T15:25:32.153Z,14.65
2023-02-13T15:27:59.841Z,14.30
2023-02-13T15:30:32.155Z,15.07
2023-02-13T15:33:17.924Z,15.38
2023-02-13T15:35:45.228Z,14.70
2023-02-13T15:38:20.733Z,14.88
2023-02-13T15:40:50.915Z,14.52
2023-02-13T15:43:34.204Z,14.40
2023-02-13T15:46:07.306Z,20.27
2023-02-13T15:48:35.615Z,35.20
2023-02-13T15:51:03.495Z,33.45
2023-02-13T15:53:30.532Z,28.17
2023-02-13T15:56:00.391Z,25.60
2023-02-13T15:58:31.313Z,23.52
2023-02-13T16:01:05.793Z,22.45
2023-02-13T16:03:33.653Z,19.52
2023-02-13T16:06:01.013Z,19.58
2023-02-13T16:08:36.401Z,19.20
2023-02-13T16:11:37.883Z,18.17
2023-02-13T16:14:17.420Z,17.38
2023-02-13T16:19:51.006Z,17.88
2023-02-13T16:22:29.679Z,17.10
2023-02-13T16:25:16.391Z,16.20
2023-02-13T16:27:48.890Z,16.20
2023-02-13T16:30:27.838Z,16.17
2023-02-13T16:33:16.624Z,15.55
2023-02-13T16:35:50.945Z,15.10
2023-02-13T16:38:37.322Z,14.75
2023-02-13T16:41:17.611Z,14.52
2023-02-13T16:43:46.201Z,14.50
2023-02-13T16:46:22.042Z,14.13
2023-02-13T16:48:48.915Z,13.82
2023-02-13T16:51:17.194Z,14.20
2023-02-13T16:53:44.126Z,14.15
2023-02-13T16:56:11.828Z,14.07
2023-02-13T16:58:38.763Z,13.20
2023-02-13T17:01:05.897Z,14.15
2023-02-13T17:03:33.215Z,13.88
2023-02-13T17:06:03.418Z,12.57
2023-02-13T17:08:33.251Z,13.07
2023-02-13T17:11:07.352Z,13.40
2023-02-13T17:13:34.678Z,12.93
2023-02-13T17:16:01.652Z,11.68
2023-02-13T17:18:28.578Z,12.13
2023-02-13T17:20:55.519Z,13.10
2023-02-13T17:23:24.170Z,12.32
2023-02-13T17:25:52.631Z,12.70
2023-02-13T17:28:21.236Z,11.57
2023-02-13T17:30:50.475Z,12.10
2023-02-13T17:33:24.478Z,11.77
2023-02-13T17:35:51.676Z,12.32
2023-02-13T17:38:18.929Z,12.60
2023-02-13T17:40:45.972Z,11.32
2023-02-13T17:43:14.699Z,10.93
2023-02-13T17:45:42.249Z,10.97
2023-02-13T17:48:09.499Z,11.63
2023-02-13T17:50:37.021Z,10.05
2023-02-13T17:53:24.497Z,10.65
2023-02-13T17:55:52.101Z,11.07
2023-02-13T17:58:19.020Z,10.90
2023-02-13T18:00:46.167Z,10.95
2023-02-13T18:03:13.115Z,10.52
2023-02-13T18:05:40.677Z,10.40
2023-02-13T18:08:08.074Z,10.15
2023-02-13T18:10:36.615Z,9.68
2023-02-13T18:13:04.476Z,10.30
2023-02-13T18:15:36.202Z,10.85
2023-02-13T18:18:03.150Z,9.85
2023-02-13T18:20:30.255Z,38.85
2023-02-13T18:22:57.150Z,58.53
2023-02-13T18:25:24.158Z,47.25
2023-02-13T18:27:51.464Z,40.17
2023-02-13T18:30:20.430Z,38.03
2023-02-13T18:32:52.716Z,32.67
2023-02-13T18:35:20.368Z,29.55
2023-02-13T18:37:47.331Z,27.10
2023-02-13T18:40:15.154Z,24.45
2023-02-13T18:42:42.065Z,22.50
2023-02-13T18:45:09.661Z,21.80
2023-02-13T18:47:36.601Z,20.98
2023-02-13T18:50:04.479Z,19.08
2023-02-13T18:52:31.399Z,18.20
2023-02-13T18:54:58.299Z,18.27
2023-02-13T18:57:25.264Z,17.88
2023-02-13T18:59:52.171Z,17.60
2023-02-13T19:02:19.261Z,17.85
2023-02-13T19:04:46.157Z,16.60
2023-02-13T19:07:13.112Z,17.48
2023-02-13T19:09:40.405Z,18.38
2023-02-13T19:12:08.262Z,24.38
2023-02-13T19:14:35.340Z,24.08
2023-02-13T19:17:02.359Z,21.55
2023-02-13T19:19:30.185Z,29.77
2023-02-13T19:21:57.197Z,29.08
2023-02-13T19:24:24.244Z,27.83
2023-02-13T19:26:51.206Z,25.38
2023-02-13T19:29:19.017Z,23.35
2023-02-13T19:31:46.129Z,23.10
2023-02-13T19:34:13.084Z,23.63
2023-02-13T19:36:39.980Z,24.27
2023-02-13T19:39:09.017Z,24.85
2023-02-13T19:41:36.144Z,24.05
2023-02-13T19:44:05.271Z,24.13
2023-02-13T19:46:33.131Z,22.27
2023-02-13T19:49:00.341Z,24.67
2023-02-13T19:51:32.159Z,18.70
2023-02-13T19:54:01.471Z,22.88
2023-02-13T19:56:29.508Z,19.02
2023-02-13T19:58:56.682Z,22.42
2023-02-13T20:01:25.214Z,19.25
2023-02-13T20:03:52.716Z,17.40
2023-02-13T20:06:23.059Z,18.73
2023-02-13T20:08:50.472Z,18.25
2023-02-13T20:11:18.486Z,16.35
2023-02-13T20:13:45.415Z,16.88
2023-02-13T20:16:14.763Z,26.27
2023-02-13T20:18:41.842Z,84.57
2023-02-13T20:21:13.871Z,78.47
2023-02-13T20:23:41.701Z,70.85
2023-02-13T20:26:13.926Z,59.70
2023-02-13T20:28:41.802Z,53.67
2023-02-13T20:31:10.874Z,51.80
2023-02-13T20:33:39.159Z,111.97
2023-02-13T20:36:18.243Z,110.53
2023-02-13T20:38:45.241Z,100.88
2023-02-13T20:41:14.880Z,88.63
2023-02-13T20:46:09.750Z,69.70
2023-02-13T20:48:37.645Z,66.13
2023-02-13T20:51:06.631Z,60.00
2023-02-13T20:53:33.560Z,57.65
2023-02-13T20:56:08.293Z,54.42
2023-02-13T20:58:35.351Z,53.33
2023-02-13T21:01:02.995Z,50.60
2023-02-13T21:03:30.207Z,47.20
2023-02-13T21:05:57.200Z,46.30
2023-02-13T21:08:24.127Z,44.75
2023-02-13T21:10:51.078Z,43.72
2023-02-13T21:13:17.966Z,42.10
2023-02-13T21:15:48.186Z,40.15
2023-02-13T21:18:15.548Z,40.92
2023-02-13T21:20:42.480Z,39.15
2023-02-13T21:23:09.412Z,37.72
2023-02-13T21:25:36.314Z,36.88
2023-02-13T21:28:03.252Z,36.38
2023-02-13T21:30:30.294Z,35.20
2023-02-13T21:32:57.216Z,34.78
2023-02-13T21:35:24.160Z,35.17
2023-02-13T21:37:51.072Z,33.13
2023-02-13T21:40:18.138Z,31.88
2023-02-13T21:42:45.091Z,31.05
2023-02-13T21:45:11.975Z,30.35
2023-02-13T21:47:38.966Z,31.67
2023-02-13T21:50:06.824Z,29.15
2023-02-13T21:52:35.143Z,27.83
2023-02-13T21:55:02.393Z,28.52
2023-02-13T21:57:29.339Z,28.60
2023-02-13T21:59:57.140Z,27.45
2023-02-13T22:02:25.071Z,28.27
2023-02-13T22:04:52.045Z,27.63
2023-02-13T22:07:18.926Z,25.92
2023-02-13T22:09:45.816Z,27.27
2023-02-13T22:12:12.789Z,25.08
2023-02-13T22:14:39.868Z,24.77
2023-02-13T22:17:06.870Z,25.05
2023-02-13T22:19:33.910Z,23.88
2023-02-13T22:22:01.162Z,23.67
2023-02-13T22:24:28.167Z,24.08
2023-02-13T22:26:55.220Z,22.70
2023-02-13T22:29:23.837Z,29.60
2023-02-13T22:31:50.859Z,100.03
2023-02-13T22:34:17.925Z,90.57
2023-02-13T22:36:44.799Z,80.97
2023-02-13T22:39:12.618Z,70.00
2023-02-13T22:41:39.506Z,58.67
2023-02-13T22:44:06.483Z,51.85
2023-02-13T22:46:33.834Z,48.60
2023-02-13T22:49:01.221Z,48.85
2023-02-13T22:51:33.521Z,45.40
2023-02-13T22:54:00.989Z,43.55
2023-02-13T22:56:29.455Z,43.40
2023-02-13T22:58:56.484Z,41.60
2023-02-13T23:01:25.350Z,39.92
2023-02-13T23:03:52.438Z,37.93
2023-02-13T23:06:19.776Z,35.88
2023-02-13T23:08:49.083Z,36.75
2023-02-13T23:11:35.748Z,34.03
2023-02-13T23:14:03.398Z,35.42
2023-02-13T23:16:52.893Z,34.10
2023-02-13T23:19:21.087Z,32.22
2023-02-13T23:21:48.058Z,32.28
2023-02-13T23:24:15.063Z,31.67
2023-02-13T23:26:41.971Z,30.17
2023-02-13T23:29:08.885Z,30.50
2023-02-13T23:31:35.873Z,30.33
2023-02-13T23:34:02.921Z,28.80
2023-02-13T23:36:29.879Z,28.02
2023-02-13T23:38:56.779Z,26.60
2023-02-13T23:41:23.676Z,26.83
2023-02-13T23:43:50.620Z,26.90
2023-02-13T23:46:17.616Z,30.73
2023-02-13T23:48:45.978Z,68.85
2023-02-13T23:51:12.928Z,81.13
2023-02-13T23:53:39.876Z,74.55
2023-02-13T23:56:07.175Z,70.43
2023-02-13T23:58:34.085Z,60.13
